Time;durP1;ratioP1;P1;durP2;ratioP2;P2;SDS_P1;SDS_P2;PMS_P1;PMS_P2;Temp;Humidity;BMP_temperature;BMP_pressure;BME280_temperature;BME280_humidity;BME280_pressure;Samples;Min_cycle;Max_cycle;Signal;HPM_P1;HPM_P2
2022/09/05 00:00:07;;;;;;;2.58;1.70;;;18.40;93.30;;;;;;5070175;28;20048;-69
2022/09/05 00:02:50;;;;;;;4.53;2.35;;;18.40;93.50;;;;;;5070699;28;20068;-69
2022/09/05 00:05:30;;;;;;;4.13;2.67;;;18.30;93.90;;;;;;5081269;28;20032;-69
2022/09/05 00:08:17;;;;;;;4.97;2.53;;;18.30;94.10;;;;;;5085376;28;20353;-69
2022/09/05 00:11:12;;;;;;;4.18;2.38;;;18.20;94.30;;;;;;5058605;28;20047;-69
2022/09/05 00:13:44;;;;;;;3.95;2.05;;;18.20;94.50;;;;;;5088989;28;20037;-69
2022/09/05 00:16:28;;;;;;;6.05;2.78;;;18.10;94.70;;;;;;5066260;28;20062;-69
2022/09/05 00:19:33;;;;;;;5.72;2.15;;;18.10;95.10;;;;;;5063835;28;20128;-69
2022/09/05 00:22:21;;;;;;;6.30;2.50;;;18.10;95.10;;;;;;5082749;28;20040;-69
2022/09/05 00:24:56;;;;;;;4.28;2.53;;;18.00;95.40;;;;;;5069036;28;20042;-69
2022/09/05 00:27:34;;;;;;;5.13;2.53;;;18.00;95.70;;;;;;5061813;28;20040;-69
2022/09/05 00:30:15;;;;;;;4.50;2.47;;;18.00;95.80;;;;;;5063456;28;20071;-69
2022/09/05 00:32:57;;;;;;;3.63;2.40;;;17.90;95.80;;;;;;5059507;28;20045;-68
2022/09/05 00:35:50;;;;;;;4.30;3.22;;;17.90;96.10;;;;;;5065140;28;20076;-69
2022/09/05 00:38:19;;;;;;;6.10;3.30;;;17.90;96.40;;;;;;5055299;28;20044;-69
2022/09/05 00:40:56;;;;;;;6.50;3.15;;;17.80;96.70;;;;;;5066830;28;20052;-68
2022/09/05 00:43:35;;;;;;;6.93;3.17;;;17.80;96.90;;;;;;5066642;28;20096;-68
2022/09/05 00:46:07;;;;;;;5.72;3.05;;;17.80;97.10;;;;;;5064587;28;20105;-68
2022/09/05 00:48:48;;;;;;;3.58;3.03;;;17.70;97.30;;;;;;5067119;28;20037;-69
2022/09/05 00:51:33;;;;;;;5.85;3.65;;;17.70;97.70;;;;;;5082281;28;20186;-68
2022/09/05 00:54:02;;;;;;;;;;;17.70;97.80;;;;;;5061348;28;20040;-69
2022/09/05 00:56:38;;;;;;;3.17;2.72;;;17.60;97.80;;;;;;5060387;28;19920;-68
2022/09/05 00:59:23;;;;;;;5.15;3.25;;;17.60;97.80;;;;;;5085308;28;20040;-68
2022/09/05 01:02:11;;;;;;;5.60;3.00;;;17.60;98.00;;;;;;5065531;28;20048;-68
2022/09/05 01:04:56;;;;;;;3.55;2.70;;;17.60;98.00;;;;;;5083726;28;20051;-69
2022/09/05 01:08:01;;;;;;;3.63;3.13;;;17.50;98.20;;;;;;5062732;28;20131;-68
2022/09/05 01:10:45;;;;;;;2.95;2.65;;;17.50;98.40;;;;;;5062629;28;20146;-68
2022/09/05 01:13:28;;;;;;;3.45;2.85;;;17.50;98.70;;;;;;5067113;28;20099;-68
2022/09/05 01:16:06;;;;;;;4.22;3.05;;;17.50;98.80;;;;;;5064074;28;20179;-68
2022/09/05 01:18:56;;;;;;;4.60;2.83;;;17.50;99.20;;;;;;5059803;28;20040;-69
2022/09/05 01:22:07;;;;;;;4.88;3.20;;;17.40;99.50;;;;;;5085037;28;20100;-69
2022/09/05 01:25:09;;;;;;;8.32;3.15;;;17.40;99.60;;;;;;4972525;28;20046;-69
2022/09/05 01:27:46;;;;;;;4.78;3.17;;;17.30;99.50;;;;;;5074313;28;20094;-69
2022/09/05 01:30:39;;;;;;;3.58;2.85;;;17.30;99.90;;;;;;5084487;28;20554;-69
2022/09/05 01:33:31;;;;;;;4.78;3.13;;;17.30;99.90;;;;;;5080709;28;20036;-68
2022/09/05 01:36:11;;;;;;;5.65;3.55;;;17.30;99.90;;;;;;5046667;28;20047;-68
2022/09/05 01:38:40;;;;;;;5.45;3.42;;;17.30;99.90;;;;;;5056623;28;20110;-68
2022/09/05 01:41:15;;;;;;;5.80;3.78;;;17.30;99.90;;;;;;5078458;28;20039;-68
2022/09/05 01:43:59;;;;;;;4.10;3.13;;;17.30;99.90;;;;;;5066429;28;20063;-68
2022/09/05 01:46:49;;;;;;;5.93;3.63;;;17.30;99.90;;;;;;5063213;28;20028;-68
2022/09/05 01:49:35;;;;;;;3.63;3.33;;;17.30;99.90;;;;;;5062901;28;20044;-68
2022/09/05 01:52:39;;;;;;;7.38;3.53;;;17.20;99.90;;;;;;5066851;28;20054;-68
2022/09/05 01:55:23;;;;;;;5.28;3.35;;;17.20;99.90;;;;;;5051681;28;20057;-68
2022/09/05 01:58:12;;;;;;;4.70;3.75;;;17.10;99.90;;;;;;5066812;28;20051;-68
2022/09/05 02:01:05;;;;;;;4.50;3.58;;;17.10;99.90;;;;;;5081579;28;20048;-69
2022/09/05 02:03:34;;;;;;;5.55;3.60;;;17.10;99.90;;;;;;5065319;28;20047;-69
2022/09/05 02:06:27;;;;;;;4.75;3.58;;;17.00;99.90;;;;;;5077563;28;20036;-69
2022/09/05 02:09:11;;;;;;;3.95;3.50;;;16.90;99.90;;;;;;5083269;28;20173;-69
2022/09/05 02:11:49;;;;;;;6.82;3.95;;;16.90;99.90;;;;;;5063282;28;20486;-69
2022/09/05 02:14:28;;;;;;;4.90;4.13;;;16.90;99.90;;;;;;5064129;28;20090;-69
2022/09/05 02:17:05;;;;;;;4.57;4.13;;;16.80;99.90;;;;;;5084284;28;20050;-69
2022/09/05 02:19:39;;;;;;;5.35;4.38;;;16.80;99.90;;;;;;5081150;28;20053;-69
2022/09/05 02:22:10;;;;;;;7.38;4.32;;;16.70;99.90;;;;;;5068213;28;20040;-69
2022/09/05 02:24:42;;;;;;;5.75;4.28;;;16.70;99.90;;;;;;5082400;28;20480;-69
2022/09/05 02:27:42;;;;;;;5.45;3.90;;;16.60;99.90;;;;;;5066150;28;20191;-69
2022/09/05 02:30:08;;;;;;;4.78;3.60;;;16.70;99.90;;;;;;5049863;28;20064;-69
2022/09/05 02:32:45;;;;;;;6.13;3.88;;;16.60;99.90;;;;;;5061056;28;20396;-69
2022/09/05 02:35:22;;;;;;;5.30;3.95;;;16.60;99.90;;;;;;5078023;28;20055;-69
2022/09/05 02:38:07;;;;;;;4.70;3.85;;;16.50;99.90;;;;;;5071723;28;20095;-69
2022/09/05 02:40:43;;;;;;;5.85;4.20;;;16.50;99.90;;;;;;5065447;28;20140;-69
2022/09/05 02:43:37;;;;;;;7.38;4.07;;;16.50;99.90;;;;;;5060297;28;20382;-69
2022/09/05 02:46:28;;;;;;;4.43;4.03;;;16.50;99.90;;;;;;5062840;28;20123;-69
2022/09/05 02:49:17;;;;;;;4.85;3.88;;;16.40;99.90;;;;;;5066384;28;20075;-69
2022/09/05 02:52:06;;;;;;;5.57;4.43;;;16.40;99.90;;;;;;5062288;28;20049;-69
2022/09/05 02:54:37;;;;;;;5.68;3.78;;;16.40;99.90;;;;;;5086800;28;20106;-69
2022/09/05 02:57:34;;;;;;;5.70;3.75;;;16.40;99.90;;;;;;5071154;28;20489;-69
2022/09/05 03:00:18;;;;;;;5.10;4.03;;;16.40;99.90;;;;;;5087838;28;20036;-69
2022/09/05 03:03:00;;;;;;;5.82;3.95;;;16.30;99.90;;;;;;5064995;28;20043;-69
2022/09/05 03:05:34;;;;;;;5.10;4.05;;;16.30;99.90;;;;;;5068092;28;20040;-69
2022/09/05 03:08:00;;;;;;;;;;;16.30;99.90;;;;;;5083501;28;20179;-69
2022/09/05 03:11:10;;;;;;;4.78;4.15;;;16.30;99.90;;;;;;5086450;28;19974;-69
2022/09/05 03:14:17;;;;;;;7.25;4.22;;;16.20;99.90;;;;;;5061999;28;20082;-69
2022/09/05 03:17:02;;;;;;;4.97;4.47;;;16.20;99.90;;;;;;5059734;28;20283;-69
2022/09/05 03:19:40;;;;;;;6.20;4.57;;;16.20;99.90;;;;;;5081530;28;20512;-69
2022/09/05 03:22:18;;;;;;;4.85;4.38;;;16.20;99.90;;;;;;5063639;28;20040;-69
2022/09/05 03:25:19;;;;;;;6.07;3.97;;;16.20;99.90;;;;;;5068662;28;20068;-69
2022/09/05 03:28:13;;;;;;;4.55;4.15;;;16.20;99.90;;;;;;5087023;28;20047;-69
2022/09/05 03:30:56;;;;;;;8.17;4.97;;;16.10;99.90;;;;;;5069164;28;20048;-69
2022/09/05 03:33:46;;;;;;;5.45;4.95;;;16.10;99.90;;;;;;5082544;28;20283;-69
2022/09/05 03:36:34;;;;;;;5.53;4.72;;;16.10;99.90;;;;;;5084856;28;20511;-69
2022/09/05 03:39:27;;;;;;;7.38;4.43;;;16.00;99.90;;;;;;5061844;28;20148;-69
2022/09/05 03:42:19;;;;;;;5.30;4.78;;;16.00;99.90;;;;;;5062884;28;20067;-69
2022/09/05 03:45:19;;;;;;;7.82;4.70;;;16.10;99.90;;;;;;5071184;28;20040;-69
2022/09/05 03:48:03;;;;;;;5.00;4.55;;;16.10;99.90;;;;;;5086702;28;20036;-69
2022/09/05 03:50:48;;;;;;;6.13;4.93;;;16.00;99.90;;;;;;5069166;28;20087;-69
2022/09/05 03:53:22;;;;;;;7.45;4.75;;;16.00;99.90;;;;;;5066455;28;20040;-69
2022/09/05 03:56:29;;;;;;;6.20;4.82;;;16.00;99.90;;;;;;5070681;28;20096;-69
2022/09/05 03:59:20;;;;;;;6.85;4.82;;;15.90;99.90;;;;;;5058754;28;20187;-69
2022/09/05 04:02:03;;;;;;;5.03;4.50;;;15.90;99.90;;;;;;5068815;28;20047;-69
2022/09/05 04:04:43;;;;;;;9.93;7.78;;;15.80;99.90;;;;;;5054837;28;20500;-69
2022/09/05 04:07:15;;;;;;;7.88;5.75;;;15.80;99.90;;;;;;5068086;28;20044;-69
2022/09/05 04:09:47;;;;;;;8.90;5.07;;;15.80;99.90;;;;;;5082597;28;20040;-69
2022/09/05 04:12:20;;;;;;;5.25;4.82;;;15.80;99.90;;;;;;5088030;28;20036;-69
2022/09/05 04:14:54;;;;;;;5.82;5.03;;;15.70;99.90;;;;;;5080160;28;20049;-69
2022/09/05 04:17:39;;;;;;;7.40;5.40;;;15.70;99.90;;;;;;5084782;28;20091;-69
2022/09/05 04:20:29;;;;;;;5.30;4.80;;;15.70;99.90;;;;;;5062042;28;20129;-69
2022/09/05 04:23:23;;;;;;;10.98;5.60;;;15.70;99.90;;;;;;5073317;28;20044;-70
2022/09/05 04:26:09;;;;;;;6.00;5.20;;;15.70;99.90;;;;;;5059743;28;20108;-67
2022/09/05 04:28:37;;;;;;;7.78;5.20;;;15.70;99.90;;;;;;5084364;28;20045;-69
2022/09/05 04:31:15;;;;;;;6.88;5.85;;;15.60;99.90;;;;;;5064961;28;20039;-67
2022/09/05 04:34:22;;;;;;;6.28;5.22;;;15.70;99.90;;;;;;5069555;28;20040;-68
2022/09/05 04:37:03;;;;;;;8.40;5.95;;;15.60;99.90;;;;;;5054057;28;20052;-68
2022/09/05 04:39:29;;;;;;;8.18;5.95;;;15.60;99.90;;;;;;5059741;28;20040;-68
2022/09/05 04:42:22;;;;;;;9.93;6.65;;;15.60;99.90;;;;;;5069572;28;20048;-68
2022/09/05 04:45:09;;;;;;;9.70;6.97;;;15.60;99.90;;;;;;5064363;28;20048;-68
2022/09/05 04:47:40;;;;;;;6.47;5.75;;;15.60;99.90;;;;;;5064081;28;20056;-68
2022/09/05 04:50:12;;;;;;;7.15;6.22;;;15.50;99.90;;;;;;5061837;28;20048;-69
2022/09/05 04:52:48;;;;;;;11.48;10.15;;;15.50;99.90;;;;;;5064458;28;20045;-68
2022/09/05 04:55:18;;;;;;;11.40;7.78;;;15.50;99.90;;;;;;5064273;28;20056;-68
2022/09/05 04:58:05;;;;;;;6.93;6.22;;;15.50;99.90;;;;;;5066474;28;20080;-68
2022/09/05 05:00:37;;;;;;;6.22;5.50;;;15.50;99.90;;;;;;5085351;28;20140;-68
2022/09/05 05:03:16;;;;;;;6.38;5.78;;;15.40;99.90;;;;;;5088757;28;20036;-68
2022/09/05 05:05:47;;;;;;;7.07;6.38;;;15.50;99.90;;;;;;5065380;28;20130;-68
2022/09/05 05:08:38;;;;;;;8.88;5.80;;;15.40;99.90;;;;;;5078435;28;20577;-68
2022/09/05 05:11:15;;;;;;;7.60;5.93;;;15.40;99.90;;;;;;5080777;28;20112;-68
2022/09/05 05:13:46;;;;;;;7.22;5.60;;;15.40;99.90;;;;;;5077107;28;20103;-68
2022/09/05 05:16:30;;;;;;;8.32;6.22;;;15.40;99.90;;;;;;5062680;28;20060;-69
2022/09/05 05:19:29;;;;;;;6.65;5.60;;;15.40;99.90;;;;;;5070539;28;20117;-68
2022/09/05 05:21:57;;;;;;;9.77;6.22;;;15.40;99.90;;;;;;5051816;28;20048;-67
2022/09/05 05:24:40;;;;;;;8.07;6.43;;;15.40;99.90;;;;;;5061581;28;20116;-68
2022/09/05 05:27:19;;;;;;;6.18;5.43;;;15.40;99.90;;;;;;5087255;28;20040;-68
2022/09/05 05:29:51;;;;;;;10.65;6.20;;;15.50;99.90;;;;;;5082163;28;20062;-68
2022/09/05 05:32:19;;;;;;;7.35;6.25;;;15.50;99.90;;;;;;5050172;28;20084;-68
2022/09/05 05:34:52;;;;;;;8.75;5.93;;;15.40;99.90;;;;;;5072497;28;20060;-68
2022/09/05 05:37:24;;;;;;;7.07;6.38;;;15.50;99.90;;;;;;5065355;28;20119;-68
2022/09/05 05:40:09;;;;;;;8.10;6.22;;;15.50;99.90;;;;;;5063883;28;20389;-68
2022/09/05 05:42:38;;;;;;;7.30;6.38;;;15.60;99.90;;;;;;5068780;28;20048;-68
2022/09/05 05:45:22;;;;;;;7.53;6.50;;;15.60;99.90;;;;;;5069984;28;20040;-68
2022/09/05 05:47:53;;;;;;;7.33;6.43;;;15.70;99.90;;;;;;5089354;28;20036;-69
2022/09/05 05:50:38;;;;;;;7.70;7.03;;;15.70;99.90;;;;;;5068229;28;20049;-68
2022/09/05 05:53:33;;;;;;;8.07;6.65;;;15.80;99.90;;;;;;5070924;28;20048;-68
2022/09/05 05:56:23;;;;;;;8.93;7.40;;;15.90;99.90;;;;;;5078894;28;20512;-68
2022/09/05 05:59:07;;;;;;;8.50;7.70;;;15.80;99.90;;;;;;5071363;28;20105;-68
2022/09/05 06:01:35;;;;;;;8.35;6.97;;;15.90;99.90;;;;;;5083226;28;20036;-68
2022/09/05 06:04:32;;;;;;;8.02;6.85;;;15.90;99.90;;;;;;5066873;28;20153;-69
2022/09/05 06:07:07;;;;;;;10.20;7.03;;;16.00;99.90;;;;;;5066641;28;20089;-68
2022/09/05 06:09:54;;;;;;;8.25;6.47;;;16.20;99.90;;;;;;5065142;28;20582;-68
2022/09/05 06:12:35;;;;;;;8.35;7.15;;;16.30;99.90;;;;;;5081157;28;20399;-68
2022/09/05 06:15:38;;;;;;;9.45;6.47;;;16.40;99.90;;;;;;5065135;28;20051;-68
2022/09/05 06:18:26;;;;;;;7.07;6.38;;;16.50;99.90;;;;;;5060716;28;20067;-68
2022/09/05 06:21:11;;;;;;;7.78;6.60;;;16.60;99.90;;;;;;5085539;28;20070;-68
2022/09/05 06:23:57;;;;;;;7.50;6.90;;;16.70;99.90;;;;;;5076678;28;20118;-67
2022/09/05 06:26:32;;;;;;;7.47;6.47;;;16.90;99.90;;;;;;5067956;28;20530;-68
2022/09/05 06:29:34;;;;;;;7.88;7.10;;;17.00;99.90;;;;;;5068969;28;20068;-69
2022/09/05 06:32:08;;;;;;;7.55;6.82;;;17.20;99.90;;;;;;5069934;28;20036;-68
2022/09/05 06:35:06;;;;;;;8.15;6.97;;;17.20;99.90;;;;;;5041861;28;20372;-68
2022/09/05 06:37:51;;;;;;;9.07;6.85;;;17.40;99.90;;;;;;5034281;28;20124;-68
2022/09/05 06:40:20;;;;;;;7.80;6.22;;;17.60;99.90;;;;;;5065666;28;20431;-68
2022/09/05 06:43:01;;;;;;;9.27;6.22;;;17.70;99.90;;;;;;5079071;28;20032;-69
2022/09/05 06:45:48;;;;;;;7.28;6.38;;;18.00;99.90;;;;;;5079908;28;20391;-68
2022/09/05 06:48:22;;;;;;;9.95;6.63;;;18.10;99.90;;;;;;5062756;28;20049;-69
2022/09/05 06:51:20;;;;;;;8.68;6.25;;;18.30;99.90;;;;;;5059931;28;20479;-68
2022/09/05 06:54:08;;;;;;;8.00;6.30;;;18.50;99.90;;;;;;5022941;28;20053;-68
2022/09/05 06:56:44;;;;;;;6.70;6.10;;;18.70;99.90;;;;;;5061121;28;20533;-68
2022/09/05 06:59:44;;;;;;;7.15;6.43;;;18.80;99.90;;;;;;5069710;28;20080;-68
2022/09/05 07:02:33;;;;;;;6.90;5.85;;;19.00;99.90;;;;;;5067738;28;20492;-68
2022/09/05 07:05:07;;;;;;;7.45;5.75;;;19.10;99.90;;;;;;5060588;28;20048;-69
2022/09/05 07:07:32;;;;;;;;;;;19.10;99.90;;;;;;5067270;28;20048;-69
2022/09/05 07:10:16;;;;;;;9.88;6.53;;;19.30;99.90;;;;;;5056484;28;19917;-68
2022/09/05 07:13:15;;;;;;;10.13;6.60;;;19.40;99.90;;;;;;5061549;28;20037;-69
2022/09/05 07:16:05;;;;;;;10.73;6.35;;;19.60;99.90;;;;;;5024654;28;20440;-68
2022/09/05 07:19:07;;;;;;;8.43;6.72;;;19.80;99.90;;;;;;5053866;28;20040;-69
2022/09/05 07:21:54;;;;;;;8.65;6.10;;;19.90;99.90;;;;;;5025696;28;20086;-69
2022/09/05 07:24:23;;;;;;;10.02;6.35;;;20.20;99.90;;;;;;5063396;28;20479;-69
2022/09/05 07:26:50;;;;;;;9.48;6.43;;;20.40;99.90;;;;;;5065748;28;20440;-69
2022/09/05 07:29:21;;;;;;;11.65;6.53;;;20.60;99.90;;;;;;5061944;28;20033;-69
2022/09/05 07:31:52;;;;;;;9.57;6.35;;;20.80;99.90;;;;;;5058440;28;20121;-68
2022/09/05 07:34:23;;;;;;;8.88;6.07;;;21.00;99.90;;;;;;5061849;28;20037;-68
2022/09/05 07:36:54;;;;;;;6.50;5.60;;;21.20;99.90;;;;;;5064793;28;20411;-68
2022/09/05 07:39:27;;;;;;;10.13;5.57;;;21.40;99.50;;;;;;5063406;28;20088;-68
2022/09/05 07:41:57;;;;;;;6.85;5.07;;;21.60;99.30;;;;;;5064492;28;20044;-68
2022/09/05 07:44:29;;;;;;;7.72;5.10;;;21.90;98.90;;;;;;5066104;28;20070;-68
2022/09/05 07:47:22;;;;;;;7.35;5.55;;;22.10;97.90;;;;;;5065772;28;20049;-68
2022/09/05 07:49:49;;;;;;;7.07;4.88;;;22.30;96.80;;;;;;5065075;28;20049;-68
2022/09/05 07:52:18;;;;;;;8.30;4.93;;;22.60;96.30;;;;;;5068059;28;20128;-69
2022/09/05 07:54:45;;;;;;;8.40;5.10;;;22.90;95.40;;;;;;5076175;28;20059;-69
2022/09/05 07:57:28;;;;;;;6.60;4.78;;;23.20;95.10;;;;;;5089095;28;20037;-68
2022/09/05 08:00:00;;;;;;;7.03;5.25;;;23.60;94.00;;;;;;5084386;28;20154;-69
2022/09/05 08:02:26;;;;;;;7.93;4.43;;;23.90;93.80;;;;;;5070461;28;20040;-69
2022/09/05 08:05:02;;;;;;;9.35;4.88;;;24.30;93.50;;;;;;5088846;28;20058;-69
2022/09/05 08:07:34;;;;;;;9.57;4.05;;;25.00;92.40;;;;;;5099283;28;20036;-69
2022/09/05 08:10:22;;;;;;;5.85;4.38;;;25.70;91.10;;;;;;5093197;28;20095;-69
2022/09/05 08:13:12;;;;;;;9.48;4.35;;;26.40;87.20;;;;;;5088672;28;20579;-69
2022/09/05 08:15:45;;;;;;;9.02;3.90;;;26.90;84.10;;;;;;5082356;28;20048;-69
2022/09/05 08:18:45;;;;;;;5.22;3.47;;;27.20;81.60;;;;;;5091240;28;20158;-69
2022/09/05 08:21:22;;;;;;;14.90;4.03;;;27.70;80.50;;;;;;5077652;28;20064;-69
2022/09/05 08:23:47;;;;;;;4.72;3.88;;;28.00;78.00;;;;;;5088574;28;20039;-69
2022/09/05 08:26:26;;;;;;;5.40;3.42;;;28.40;74.90;;;;;;5097801;28;20040;-70
2022/09/05 08:29:24;;;;;;;6.28;3.75;;;28.90;73.90;;;;;;5095474;28;20044;-70
2022/09/05 08:32:13;;;;;;;7.32;3.97;;;29.50;69.10;;;;;;5075605;28;20075;-70
2022/09/05 08:35:05;;;;;;;7.10;3.38;;;29.50;70.00;;;;;;5088823;28;20077;-70
2022/09/05 08:37:31;;;;;;;7.28;3.58;;;29.70;65.90;;;;;;5075403;28;20254;-70
2022/09/05 08:40:21;;;;;;;11.13;3.80;;;29.50;66.80;;;;;;5095801;28;20036;-70
2022/09/05 08:42:55;;;;;;;6.30;3.97;;;29.50;65.60;;;;;;5055571;28;20045;-70
2022/09/05 08:45:37;;;;;;;11.30;3.80;;;29.50;65.70;;;;;;5093139;28;20050;-70
2022/09/05 08:48:12;;;;;;;6.63;3.65;;;29.70;66.10;;;;;;5069122;28;20048;-70
2022/09/05 08:50:59;;;;;;;9.40;4.05;;;29.80;62.80;;;;;;5090023;28;20071;-70
2022/09/05 08:53:44;;;;;;;7.20;3.60;;;29.90;62.60;;;;;;5069210;28;20070;-70
2022/09/05 08:56:21;;;;;;;4.05;3.35;;;30.10;64.70;;;;;;5091649;28;20048;-70
2022/09/05 08:58:55;;;;;;;7.57;3.83;;;30.70;62.00;;;;;;5089898;28;20420;-70
2022/09/05 09:01:32;;;;;;;6.50;3.40;;;30.90;60.60;;;;;;5078607;28;20059;-70
2022/09/05 09:04:07;;;;;;;4.60;3.05;;;31.00;61.10;;;;;;5093425;28;20048;-70
2022/09/05 09:07:16;;;;;;;7.28;3.17;;;31.30;60.10;;;;;;5078282;28;20094;-70
2022/09/05 09:10:00;;;;;;;3.90;2.70;;;31.80;59.70;;;;;;5076389;28;20152;-70
2022/09/05 09:12:44;;;;;;;5.53;3.17;;;32.20;58.60;;;;;;5089304;28;20999;-70
2022/09/05 09:15:31;;;;;;;6.95;3.35;;;32.20;55.70;;;;;;5083448;28;20044;-70
2022/09/05 09:17:57;;;;;;;8.82;2.60;;;32.10;55.50;;;;;;5067803;28;20048;-70
2022/09/05 09:20:47;;;;;;;4.93;3.17;;;31.90;56.90;;;;;;5073200;28;20043;-70
2022/09/05 09:23:22;;;;;;;4.07;2.80;;;32.10;56.20;;;;;;5092860;28;20036;-70
2022/09/05 09:26:07;;;;;;;4.20;2.40;;;32.30;57.20;;;;;;5083622;28;20036;-70
2022/09/05 09:28:41;;;;;;;3.72;2.50;;;32.70;56.00;;;;;;5095133;28;20039;-70
2022/09/05 09:31:51;;;;;;;6.40;2.53;;;32.90;54.60;;;;;;5097649;28;20040;-70
2022/09/05 09:34:25;;;;;;;6.80;2.20;;;33.20;55.30;;;;;;5039932;28;20361;-70
2022/09/05 09:37:26;;;;;;;5.30;2.90;;;33.20;54.00;;;;;;5041972;28;20129;-70
2022/09/05 09:40:36;;;;;;;5.85;2.63;;;33.10;52.20;;;;;;5053048;28;20079;-70
2022/09/05 09:43:19;;;;;;;5.13;2.90;;;33.10;53.70;;;;;;5015429;28;20034;-70
2022/09/05 09:45:50;;;;;;;4.82;2.42;;;33.30;52.50;;;;;;5083308;28;20063;-70
2022/09/05 09:48:44;;;;;;;5.93;2.10;;;33.40;53.70;;;;;;5094868;28;20268;-70
2022/09/05 09:52:14;;;;;;;6.30;2.50;;;33.70;52.10;;;;;;5086443;28;20048;-70
2022/09/05 09:55:17;;;;;;;5.22;2.53;;;33.80;50.90;;;;;;4971357;28;20050;-70
2022/09/05 09:57:58;;;;;;;4.03;2.28;;;33.70;50.80;;;;;;5018783;28;20088;-70
2022/09/05 10:00:33;;;;;;;4.00;1.95;;;33.70;52.20;;;;;;5089573;28;20044;-70
2022/09/05 10:03:01;;;;;;;2.85;2.10;;;33.80;52.30;;;;;;5089343;28;20028;-71
2022/09/05 10:05:48;;;;;;;3.97;1.95;;;33.90;51.10;;;;;;5083432;28;20041;-70
2022/09/05 10:08:38;;;;;;;2.80;1.85;;;33.80;49.80;;;;;;5080007;28;20475;-70
2022/09/05 10:11:19;;;;;;;3.22;2.50;;;33.60;51.30;;;;;;5086668;28;20047;-70
2022/09/05 10:14:21;;;;;;;4.72;2.08;;;33.60;49.60;;;;;;5099857;28;20112;-69
2022/09/05 10:16:47;;;;;;;4.53;2.33;;;33.50;50.80;;;;;;5096181;28;20039;-68
2022/09/05 10:19:50;;;;;;;2.67;1.92;;;33.40;49.60;;;;;;5095921;28;20171;-68
2022/09/05 10:23:02;;;;;;;5.50;2.25;;;33.50;49.80;;;;;;5089000;28;20032;-69
2022/09/05 10:25:46;;;;;;;5.13;2.20;;;33.40;49.70;;;;;;5086456;28;20044;-68
2022/09/05 10:28:59;;;;;;;6.63;1.98;;;33.30;49.60;;;;;;5090230;28;20048;-69
2022/09/05 10:31:51;;;;;;;6.38;1.75;;;33.30;50.40;;;;;;5086869;28;20048;-69
2022/09/05 10:34:23;;;;;;;2.33;1.83;;;33.60;51.30;;;;;;5069115;28;20102;-69
2022/09/05 10:36:53;;;;;;;5.60;1.95;;;33.90;50.50;;;;;;5086130;28;20395;-68
2022/09/05 10:39:36;;;;;;;2.90;1.83;;;34.30;48.90;;;;;;5064672;28;20037;-68
2022/09/05 10:42:57;;;;;;;2.22;1.20;;;34.30;48.10;;;;;;5068020;28;20375;-68
2022/09/05 10:45:59;;;;;;;5.35;1.30;;;34.40;48.60;;;;;;5021455;28;20040;-69
2022/09/05 10:48:53;;;;;;;2.75;1.15;;;34.60;48.30;;;;;;5082412;28;20051;-69
2022/09/05 10:51:41;;;;;;;2.05;1.10;;;34.70;45.60;;;;;;5077924;28;20044;-70
2022/09/05 10:54:25;;;;;;;4.20;1.50;;;34.70;46.50;;;;;;5079870;28;20066;-70
2022/09/05 10:57:20;;;;;;;2.50;1.30;;;34.80;45.30;;;;;;5070409;28;20069;-69
2022/09/05 11:00:22;;;;;;;4.18;1.50;;;34.50;45.00;;;;;;5081115;28;20643;-69
2022/09/05 11:02:55;;;;;;;3.25;1.10;;;34.20;45.40;;;;;;5083922;28;20105;-69
2022/09/05 11:05:25;;;;;;;5.65;0.90;;;34.10;46.10;;;;;;5083179;28;20614;-70
2022/09/05 11:08:25;;;;;;;3.85;0.90;;;34.10;46.50;;;;;;5081220;28;20123;-69
2022/09/05 11:11:14;;;;;;;3.38;0.80;;;34.20;46.80;;;;;;5022092;28;20067;-69
2022/09/05 11:13:50;;;;;;;1.98;0.80;;;34.40;46.10;;;;;;5078006;28;20036;-69
2022/09/05 11:16:51;;;;;;;2.65;0.73;;;34.40;44.20;;;;;;5085370;28;20046;-69
2022/09/05 11:19:16;;;;;;;1.20;0.75;;;34.50;45.00;;;;;;5074128;28;20044;-70
2022/09/05 11:21:45;;;;;;;3.13;0.85;;;34.60;44.70;;;;;;5070744;28;20098;-70
2022/09/05 11:24:25;;;;;;;2.17;0.95;;;34.50;44.20;;;;;;5084958;28;20109;-70
2022/09/05 11:27:03;;;;;;;3.80;1.15;;;34.50;45.50;;;;;;5060838;28;20116;-71
2022/09/05 11:29:47;;;;;;;4.53;1.10;;;34.60;44.50;;;;;;5066328;28;20056;-70
2022/09/05 11:32:41;;;;;;;4.95;1.00;;;34.60;43.70;;;;;;5067978;28;20040;-70
2022/09/05 11:35:24;;;;;;;1.42;0.85;;;34.70;44.40;;;;;;5087205;28;20043;-70
2022/09/05 11:38:08;;;;;;;1.92;1.10;;;35.10;44.20;;;;;;5066783;28;20048;-70
2022/09/05 11:40:49;;;;;;;1.67;0.90;;;35.70;42.00;;;;;;5069732;28;20074;-70
2022/09/05 11:43:14;;;;;;;3.53;1.20;;;35.80;41.60;;;;;;5079825;28;20036;-70
2022/09/05 11:45:40;;;;;;;2.67;0.82;;;35.70;41.00;;;;;;5063389;28;20323;-69
2022/09/05 11:48:33;;;;;;;3.47;0.90;;;35.30;42.10;;;;;;5063029;28;20116;-70
2022/09/05 11:51:04;;;;;;;3.03;0.82;;;34.90;42.50;;;;;;5064851;28;20683;-70
2022/09/05 11:54:14;;;;;;;1.17;0.63;;;34.50;43.00;;;;;;5065404;28;20067;-70
2022/09/05 11:57:04;;;;;;;1.88;0.70;;;34.00;42.80;;;;;;5091183;28;20051;-70
2022/09/05 12:00:10;;;;;;;0.93;0.60;;;33.60;42.70;;;;;;5083358;28;20056;-70
2022/09/05 12:03:17;;;;;;;2.75;0.90;;;33.20;43.00;;;;;;5088516;28;20063;-70
2022/09/05 12:06:28;;;;;;;2.15;0.80;;;32.60;43.80;;;;;;5057607;28;20098;-71
2022/09/05 12:09:09;;;;;;;2.63;1.20;;;33.10;45.40;;;;;;5057796;28;20480;-70
2022/09/05 12:11:37;;;;;;;2.85;0.88;;;33.90;43.30;;;;;;5092675;28;20101;-71
2022/09/05 12:14:28;;;;;;;2.15;1.13;;;34.60;42.70;;;;;;5091523;28;20072;-71
2022/09/05 12:17:22;;;;;;;3.08;1.10;;;35.20;42.80;;;;;;5073561;28;20381;-71
2022/09/05 12:19:53;;;;;;;1.63;0.73;;;35.50;42.30;;;;;;5067607;28;20090;-71
2022/09/05 12:22:46;;;;;;;1.40;0.82;;;35.10;42.10;;;;;;5088731;28;20028;-70
2022/09/05 12:25:49;;;;;;;3.65;0.90;;;34.70;42.00;;;;;;5056373;28;20048;-70
2022/09/05 12:28:26;;;;;;;3.00;2.17;;;34.00;41.80;;;;;;5026346;28;20538;-70
2022/09/05 12:31:08;;;;;;;3.33;0.93;;;33.40;42.60;;;;;;5069230;28;20352;-71
2022/09/05 12:33:35;;;;;;;2.85;0.90;;;33.40;43.80;;;;;;5088287;28;20083;-70
2022/09/05 12:36:12;;;;;;;3.38;0.80;;;33.70;42.40;;;;;;5084935;28;20083;-70
2022/09/05 12:39:12;;;;;;;2.10;0.90;;;34.10;42.50;;;;;;5058829;28;20551;-70
2022/09/05 12:41:49;;;;;;;3.58;1.13;;;34.60;42.70;;;;;;5070963;28;20051;-71
2022/09/05 12:44:36;;;;;;;2.67;1.00;;;34.70;42.30;;;;;;5069168;28;20543;-70
2022/09/05 12:47:10;;;;;;;1.73;0.77;;;34.50;41.60;;;;;;5093755;28;20032;-71
2022/09/05 12:49:48;;;;;;;2.38;0.80;;;34.80;42.90;;;;;;5084240;28;20615;-71
2022/09/05 12:52:23;;;;;;;1.92;0.65;;;35.20;41.20;;;;;;5091972;28;20036;-71
2022/09/05 12:54:58;;;;;;;2.10;1.10;;;35.10;40.70;;;;;;5085080;28;20078;-71
2022/09/05 12:57:33;;;;;;;1.63;1.05;;;35.00;41.80;;;;;;5082186;28;20039;-71
2022/09/05 13:00:13;;;;;;;3.40;0.93;;;34.90;41.90;;;;;;5069326;28;20051;-71
2022/09/05 13:02:44;;;;;;;2.80;1.05;;;34.70;42.00;;;;;;5075128;28;20046;-71
2022/09/05 13:05:18;;;;;;;5.78;1.50;;;34.70;41.50;;;;;;5083064;28;20060;-71
2022/09/05 13:07:55;;;;;;;3.33;1.10;;;34.90;41.50;;;;;;5084898;28;20032;-71
2022/09/05 13:10:38;;;;;;;3.92;1.00;;;35.00;40.50;;;;;;5064700;28;20044;-71
2022/09/05 13:13:12;;;;;;;2.60;0.93;;;34.70;41.20;;;;;;5064284;28;20115;-71
2022/09/05 13:15:42;;;;;;;4.57;0.80;;;33.90;41.50;;;;;;5079977;28;20046;-71
2022/09/05 13:18:14;;;;;;;2.03;0.95;;;33.40;43.00;;;;;;5076386;28;20044;-71
2022/09/05 13:20:50;;;;;;;1.33;0.77;;;33.50;42.60;;;;;;5081336;28;20876;-71
2022/09/05 13:23:32;;;;;;;2.72;1.10;;;33.70;43.90;;;;;;5079283;28;20431;-70
2022/09/05 13:26:22;;;;;;;1.75;0.90;;;34.20;42.50;;;;;;5063988;28;20055;-70
2022/09/05 13:29:00;;;;;;;2.00;1.02;;;34.20;42.40;;;;;;5072197;28;20048;-70
2022/09/05 13:31:41;;;;;;;2.28;0.90;;;34.10;42.40;;;;;;5083435;28;20036;-72
2022/09/05 13:34:28;;;;;;;2.33;0.93;;;34.00;42.90;;;;;;5074049;28;20468;-72
2022/09/05 13:37:14;;;;;;;3.00;0.90;;;33.90;42.50;;;;;;5052096;28;20052;-71
2022/09/05 13:39:46;;;;;;;1.50;0.80;;;33.70;42.20;;;;;;5066570;28;20048;-71
2022/09/05 13:42:18;;;;;;;3.47;0.77;;;33.50;42.50;;;;;;5078356;28;20611;-71
2022/09/05 13:44:45;;;;;;;3.10;1.10;;;33.40;43.20;;;;;;5088172;28;20111;-71
2022/09/05 13:47:43;;;;;;;1.67;0.80;;;33.30;43.20;;;;;;5064181;28;20052;-71
2022/09/05 13:50:30;;;;;;;2.47;0.90;;;33.10;43.80;;;;;;5072013;28;20105;-71
2022/09/05 13:53:23;;;;;;;4.88;0.90;;;32.80;44.40;;;;;;5066211;28;20044;-70
2022/09/05 13:55:57;;;;;;;2.22;0.90;;;32.30;44.50;;;;;;5064524;28;20603;-71
2022/09/05 13:58:48;;;;;;;3.53;0.98;;;32.30;45.80;;;;;;5065331;28;20054;-71
2022/09/05 14:01:30;;;;;;;1.58;0.88;;;32.50;45.10;;;;;;5087645;28;20032;-70
2022/09/05 14:04:05;;;;;;;2.67;0.90;;;32.50;44.40;;;;;;5064081;28;20138;-71
2022/09/05 14:07:06;;;;;;;2.20;0.98;;;32.50;44.80;;;;;;5081927;28;20638;-70
2022/09/05 14:09:48;;;;;;;2.85;1.20;;;32.30;43.70;;;;;;5048222;28;20048;-70